sensor_id;sensor_type;location;lat;lon;timestamp;P1;durP1;ratioP1;P2;durP2;ratioP2
52354;SDS011;38286;51.156;17.038;2023-04-15T00:01:38;38.78;;;23.30;;
52354;SDS011;38286;51.156;17.038;2023-04-15T00:04:03;34.83;;;21.65;;
52354;SDS011;38286;51.156;17.038;2023-04-15T00:06:30;33.40;;;20.35;;
52354;SDS011;38286;51.156;17.038;2023-04-15T00:08:56;37.25;;;21.67;;
52354;SDS011;38286;51.156;17.038;2023-04-15T00:11:22;35.67;;;20.58;;
52354;SDS011;38286;51.156;17.038;2023-04-15T00:13:48;31.88;;;20.23;;
52354;SDS011;38286;51.156;17.038;2023-04-15T00:16:14;36.42;;;21.92;;
52354;SDS011;38286;51.156;17.038;2023-04-15T00:18:40;35.35;;;20.35;;
52354;SDS011;38286;51.156;17.038;2023-04-15T00:21:06;30.00;;;19.73;;
52354;SDS011;38286;51.156;17.038;2023-04-15T00:23:33;29.10;;;18.85;;
52354;SDS011;38286;51.156;17.038;2023-04-15T00:26:01;31.17;;;19.20;;
52354;SDS011;38286;51.156;17.038;2023-04-15T00:28:27;31.40;;;19.05;;
52354;SDS011;38286;51.156;17.038;2023-04-15T00:30:53;28.35;;;17.35;;
52354;SDS011;38286;51.156;17.038;2023-04-15T00:33:18;30.67;;;18.50;;
52354;SDS011;38286;51.156;17.038;2023-04-15T00:35:45;28.75;;;18.77;;
52354;SDS011;38286;51.156;17.038;2023-04-15T00:38:10;29.38;;;18.45;;
52354;SDS011;38286;51.156;17.038;2023-04-15T00:40:37;27.10;;;17.70;;
52354;SDS011;38286;51.156;17.038;2023-04-15T00:43:03;28.55;;;18.13;;
52354;SDS011;38286;51.156;17.038;2023-04-15T00:45:30;27.27;;;18.35;;
52354;SDS011;38286;51.156;17.038;2023-04-15T00:47:56;29.23;;;18.38;;
52354;SDS011;38286;51.156;17.038;2023-04-15T00:50:23;27.30;;;18.42;;
52354;SDS011;38286;51.156;17.038;2023-04-15T00:52:49;29.48;;;17.85;;
52354;SDS011;38286;51.156;17.038;2023-04-15T00:55:15;28.92;;;18.17;;
52354;SDS011;38286;51.156;17.038;2023-04-15T00:57:41;30.33;;;18.65;;
52354;SDS011;38286;51.156;17.038;2023-04-15T01:00:07;28.10;;;17.52;;
52354;SDS011;38286;51.156;17.038;2023-04-15T01:02:35;24.55;;;16.70;;
52354;SDS011;38286;51.156;17.038;2023-04-15T01:05:02;28.33;;;17.23;;
52354;SDS011;38286;51.156;17.038;2023-04-15T01:07:28;28.83;;;17.33;;
52354;SDS011;38286;51.156;17.038;2023-04-15T01:09:55;29.35;;;18.20;;
52354;SDS011;38286;51.156;17.038;2023-04-15T01:12:22;29.95;;;17.65;;
52354;SDS011;38286;51.156;17.038;2023-04-15T01:14:50;28.58;;;17.75;;
52354;SDS011;38286;51.156;17.038;2023-04-15T01:17:16;23.55;;;16.23;;
52354;SDS011;38286;51.156;17.038;2023-04-15T01:19:42;27.27;;;17.35;;
52354;SDS011;38286;51.156;17.038;2023-04-15T01:22:08;25.27;;;16.85;;
52354;SDS011;38286;51.156;17.038;2023-04-15T01:24:34;26.35;;;17.95;;
52354;SDS011;38286;51.156;17.038;2023-04-15T01:27:01;27.35;;;16.50;;
52354;SDS011;38286;51.156;17.038;2023-04-15T01:29:29;25.67;;;17.30;;
52354;SDS011;38286;51.156;17.038;2023-04-15T01:31:56;28.58;;;17.88;;
52354;SDS011;38286;51.156;17.038;2023-04-15T01:34:23;27.10;;;17.52;;
52354;SDS011;38286;51.156;17.038;2023-04-15T01:36:48;27.50;;;17.42;;
52354;SDS011;38286;51.156;17.038;2023-04-15T01:39:14;27.73;;;16.60;;
52354;SDS011;38286;51.156;17.038;2023-04-15T01:41:40;27.15;;;16.52;;
52354;SDS011;38286;51.156;17.038;2023-04-15T01:44:07;27.48;;;17.08;;
52354;SDS011;38286;51.156;17.038;2023-04-15T01:46:33;27.38;;;17.77;;
52354;SDS011;38286;51.156;17.038;2023-04-15T01:49:00;26.40;;;16.85;;
52354;SDS011;38286;51.156;17.038;2023-04-15T01:51:26;24.35;;;15.93;;
52354;SDS011;38286;51.156;17.038;2023-04-15T01:53:52;28.75;;;16.48;;
52354;SDS011;38286;51.156;17.038;2023-04-15T01:56:21;21.20;;;15.00;;
52354;SDS011;38286;51.156;17.038;2023-04-15T01:58:48;26.38;;;16.42;;
52354;SDS011;38286;51.156;17.038;2023-04-15T02:01:14;23.30;;;15.95;;
52354;SDS011;38286;51.156;17.038;2023-04-15T02:03:41;25.00;;;15.57;;
52354;SDS011;38286;51.156;17.038;2023-04-15T02:06:07;25.33;;;15.70;;
52354;SDS011;38286;51.156;17.038;2023-04-15T02:08:33;28.20;;;17.13;;
52354;SDS011;38286;51.156;17.038;2023-04-15T02:10:59;26.77;;;18.17;;
52354;SDS011;38286;51.156;17.038;2023-04-15T02:13:26;26.67;;;16.65;;
52354;SDS011;38286;51.156;17.038;2023-04-15T02:15:53;25.98;;;16.33;;
52354;SDS011;38286;51.156;17.038;2023-04-15T02:18:20;25.83;;;15.52;;
52354;SDS011;38286;51.156;17.038;2023-04-15T02:21:04;30.13;;;15.63;;
52354;SDS011;38286;51.156;17.038;2023-04-15T02:23:31;25.77;;;15.02;;
52354;SDS011;38286;51.156;17.038;2023-04-15T02:25:57;24.75;;;15.43;;
52354;SDS011;38286;51.156;17.038;2023-04-15T02:28:24;26.27;;;16.27;;
52354;SDS011;38286;51.156;17.038;2023-04-15T02:30:51;20.90;;;14.23;;
52354;SDS011;38286;51.156;17.038;2023-04-15T02:33:20;21.45;;;14.77;;
52354;SDS011;38286;51.156;17.038;2023-04-15T02:35:46;23.23;;;16.10;;
52354;SDS011;38286;51.156;17.038;2023-04-15T02:38:12;22.13;;;15.27;;
52354;SDS011;38286;51.156;17.038;2023-04-15T02:40:39;23.52;;;15.70;;
52354;SDS011;38286;51.156;17.038;2023-04-15T02:43:05;27.45;;;17.20;;
52354;SDS011;38286;51.156;17.038;2023-04-15T02:45:31;31.60;;;19.70;;
52354;SDS011;38286;51.156;17.038;2023-04-15T02:47:58;29.23;;;19.20;;
52354;SDS011;38286;51.156;17.038;2023-04-15T02:50:25;28.15;;;17.45;;
52354;SDS011;38286;51.156;17.038;2023-04-15T02:52:52;27.50;;;17.45;;
52354;SDS011;38286;51.156;17.038;2023-04-15T02:55:17;28.35;;;17.25;;
52354;SDS011;38286;51.156;17.038;2023-04-15T02:57:44;26.65;;;17.10;;
52354;SDS011;38286;51.156;17.038;2023-04-15T03:00:09;28.20;;;17.88;;
52354;SDS011;38286;51.156;17.038;2023-04-15T03:02:39;28.40;;;18.10;;
52354;SDS011;38286;51.156;17.038;2023-04-15T03:05:10;27.65;;;17.77;;
52354;SDS011;38286;51.156;17.038;2023-04-15T03:07:37;30.85;;;18.38;;
52354;SDS011;38286;51.156;17.038;2023-04-15T03:10:04;29.25;;;18.23;;
52354;SDS011;38286;51.156;17.038;2023-04-15T03:12:32;27.55;;;17.83;;
52354;SDS011;38286;51.156;17.038;2023-04-15T03:14:57;26.73;;;17.60;;
52354;SDS011;38286;51.156;17.038;2023-04-15T03:17:25;26.40;;;16.77;;
52354;SDS011;38286;51.156;17.038;2023-04-15T03:19:50;29.83;;;18.30;;
52354;SDS011;38286;51.156;17.038;2023-04-15T03:22:17;29.50;;;17.58;;
52354;SDS011;38286;51.156;17.038;2023-04-15T03:24:42;27.30;;;16.60;;
52354;SDS011;38286;51.156;17.038;2023-04-15T03:27:09;26.85;;;16.52;;
52354;SDS011;38286;51.156;17.038;2023-04-15T03:29:35;31.48;;;16.38;;
52354;SDS011;38286;51.156;17.038;2023-04-15T03:32:01;26.88;;;16.42;;
52354;SDS011;38286;51.156;17.038;2023-04-15T03:34:27;28.02;;;17.35;;
52354;SDS011;38286;51.156;17.038;2023-04-15T03:36:53;26.58;;;16.85;;
52354;SDS011;38286;51.156;17.038;2023-04-15T03:39:19;27.70;;;17.58;;
52354;SDS011;38286;51.156;17.038;2023-04-15T03:41:45;31.00;;;17.13;;
52354;SDS011;38286;51.156;17.038;2023-04-15T03:44:11;29.35;;;16.85;;
52354;SDS011;38286;51.156;17.038;2023-04-15T03:46:37;32.88;;;18.27;;
52354;SDS011;38286;51.156;17.038;2023-04-15T03:49:05;31.15;;;18.02;;
52354;SDS011;38286;51.156;17.038;2023-04-15T03:51:31;31.55;;;17.60;;
52354;SDS011;38286;51.156;17.038;2023-04-15T03:53:57;30.60;;;17.88;;
52354;SDS011;38286;51.156;17.038;2023-04-15T03:56:23;29.10;;;16.75;;
52354;SDS011;38286;51.156;17.038;2023-04-15T03:58:49;29.95;;;17.55;;
52354;SDS011;38286;51.156;17.038;2023-04-15T04:01:16;32.88;;;18.23;;
52354;SDS011;38286;51.156;17.038;2023-04-15T04:03:42;29.85;;;17.17;;
52354;SDS011;38286;51.156;17.038;2023-04-15T04:06:08;31.20;;;16.63;;
52354;SDS011;38286;51.156;17.038;2023-04-15T04:08:34;27.85;;;16.60;;
52354;SDS011;38286;51.156;17.038;2023-04-15T04:11:00;30.90;;;17.23;;
52354;SDS011;38286;51.156;17.038;2023-04-15T04:13:26;29.85;;;16.38;;
52354;SDS011;38286;51.156;17.038;2023-04-15T04:15:52;29.42;;;16.30;;
52354;SDS011;38286;51.156;17.038;2023-04-15T04:18:18;26.48;;;15.75;;
52354;SDS011;38286;51.156;17.038;2023-04-15T04:20:45;30.55;;;16.70;;
52354;SDS011;38286;51.156;17.038;2023-04-15T04:23:11;27.95;;;15.85;;
52354;SDS011;38286;51.156;17.038;2023-04-15T04:25:37;25.65;;;15.48;;
52354;SDS011;38286;51.156;17.038;2023-04-15T04:28:03;28.58;;;16.27;;
52354;SDS011;38286;51.156;17.038;2023-04-15T04:30:29;31.15;;;16.80;;
52354;SDS011;38286;51.156;17.038;2023-04-15T04:32:55;31.33;;;18.15;;
52354;SDS011;38286;51.156;17.038;2023-04-15T04:35:22;29.83;;;16.85;;
52354;SDS011;38286;51.156;17.038;2023-04-15T04:37:48;28.30;;;16.30;;
52354;SDS011;38286;51.156;17.038;2023-04-15T04:40:14;26.20;;;15.40;;
52354;SDS011;38286;51.156;17.038;2023-04-15T04:42:40;26.00;;;13.88;;
52354;SDS011;38286;51.156;17.038;2023-04-15T04:45:06;24.85;;;13.60;;
52354;SDS011;38286;51.156;17.038;2023-04-15T04:47:33;20.45;;;13.07;;
52354;SDS011;38286;51.156;17.038;2023-04-15T04:49:59;20.27;;;11.40;;
52354;SDS011;38286;51.156;17.038;2023-04-15T04:52:25;17.50;;;10.52;;
52354;SDS011;38286;51.156;17.038;2023-04-15T04:54:51;18.48;;;10.20;;
52354;SDS011;38286;51.156;17.038;2023-04-15T04:57:17;14.43;;;9.02;;
52354;SDS011;38286;51.156;17.038;2023-04-15T04:59:43;16.15;;;9.48;;
52354;SDS011;38286;51.156;17.038;2023-04-15T05:02:08;14.75;;;9.68;;
52354;SDS011;38286;51.156;17.038;2023-04-15T05:04:35;18.30;;;9.23;;
52354;SDS011;38286;51.156;17.038;2023-04-15T05:07:01;16.67;;;10.10;;
52354;SDS011;38286;51.156;17.038;2023-04-15T05:09:27;15.52;;;9.57;;
52354;SDS011;38286;51.156;17.038;2023-04-15T05:11:56;14.77;;;9.10;;
52354;SDS011;38286;51.156;17.038;2023-04-15T05:14:22;15.93;;;8.25;;
52354;SDS011;38286;51.156;17.038;2023-04-15T05:16:48;12.98;;;8.07;;
52354;SDS011;38286;51.156;17.038;2023-04-15T05:19:14;12.77;;;7.57;;
52354;SDS011;38286;51.156;17.038;2023-04-15T05:21:40;11.13;;;7.07;;
52354;SDS011;38286;51.156;17.038;2023-04-15T05:24:06;12.10;;;7.70;;
52354;SDS011;38286;51.156;17.038;2023-04-15T05:26:32;14.70;;;8.13;;
52354;SDS011;38286;51.156;17.038;2023-04-15T05:28:58;13.30;;;8.00;;
52354;SDS011;38286;51.156;17.038;2023-04-15T05:31:24;14.07;;;8.50;;
52354;SDS011;38286;51.156;17.038;2023-04-15T05:33:50;13.70;;;9.25;;
52354;SDS011;38286;51.156;17.038;2023-04-15T05:36:16;12.18;;;8.27;;
52354;SDS011;38286;51.156;17.038;2023-04-15T05:38:42;16.77;;;9.30;;
52354;SDS011;38286;51.156;17.038;2023-04-15T05:41:08;15.32;;;9.52;;
52354;SDS011;38286;51.156;17.038;2023-04-15T05:43:34;13.18;;;8.70;;
52354;SDS011;38286;51.156;17.038;2023-04-15T05:46:00;13.50;;;8.95;;
52354;SDS011;38286;51.156;17.038;2023-04-15T05:48:26;13.35;;;8.45;;
52354;SDS011;38286;51.156;17.038;2023-04-15T05:50:52;13.63;;;8.23;;
52354;SDS011;38286;51.156;17.038;2023-04-15T05:53:18;12.38;;;7.70;;
52354;SDS011;38286;51.156;17.038;2023-04-15T05:55:45;9.80;;;6.40;;
52354;SDS011;38286;51.156;17.038;2023-04-15T05:58:11;7.20;;;4.80;;
52354;SDS011;38286;51.156;17.038;2023-04-15T06:00:37;5.32;;;4.07;;
52354;SDS011;38286;51.156;17.038;2023-04-15T06:03:03;4.65;;;3.15;;
52354;SDS011;38286;51.156;17.038;2023-04-15T06:05:30;5.22;;;2.60;;
52354;SDS011;38286;51.156;17.038;2023-04-15T06:07:56;2.25;;;1.77;;
52354;SDS011;38286;51.156;17.038;2023-04-15T06:10:22;2.10;;;1.90;;
52354;SDS011;38286;51.156;17.038;2023-04-15T06:12:48;2.38;;;1.70;;
52354;SDS011;38286;51.156;17.038;2023-04-15T06:15:14;1.50;;;1.40;;
52354;SDS011;38286;51.156;17.038;2023-04-15T06:17:41;1.73;;;1.52;;
52354;SDS011;38286;51.156;17.038;2023-04-15T06:20:07;1.77;;;1.67;;
52354;SDS011;38286;51.156;17.038;2023-04-15T06:22:35;2.20;;;1.40;;
52354;SDS011;38286;51.156;17.038;2023-04-15T06:25:01;1.58;;;1.48;;
52354;SDS011;38286;51.156;17.038;2023-04-15T06:27:27;2.40;;;1.70;;
52354;SDS011;38286;51.156;17.038;2023-04-15T06:29:53;2.08;;;1.60;;
52354;SDS011;38286;51.156;17.038;2023-04-15T06:32:19;1.50;;;1.40;;
52354;SDS011;38286;51.156;17.038;2023-04-15T06:34:45;1.48;;;1.17;;
52354;SDS011;38286;51.156;17.038;2023-04-15T06:37:11;1.20;;;1.10;;
52354;SDS011;38286;51.156;17.038;2023-04-15T06:39:40;1.25;;;1.15;;
52354;SDS011;38286;51.156;17.038;2023-04-15T06:42:07;1.52;;;1.23;;
52354;SDS011;38286;51.156;17.038;2023-04-15T06:44:34;1.42;;;1.33;;
52354;SDS011;38286;51.156;17.038;2023-04-15T06:47:02;1.55;;;1.30;;
52354;SDS011;38286;51.156;17.038;2023-04-15T06:49:28;1.90;;;1.40;;
52354;SDS011;38286;51.156;17.038;2023-04-15T06:51:54;1.73;;;1.48;;
52354;SDS011;38286;51.156;17.038;2023-04-15T06:54:20;2.50;;;1.75;;
52354;SDS011;38286;51.156;17.038;2023-04-15T06:56:46;1.80;;;1.35;;
52354;SDS011;38286;51.156;17.038;2023-04-15T06:59:12;1.40;;;1.30;;
52354;SDS011;38286;51.156;17.038;2023-04-15T07:01:42;3.08;;;1.30;;
52354;SDS011;38286;51.156;17.038;2023-04-15T07:04:08;1.52;;;1.10;;
52354;SDS011;38286;51.156;17.038;2023-04-15T07:06:34;1.65;;;0.98;;
52354;SDS011;38286;51.156;17.038;2023-04-15T07:09:00;1.30;;;1.20;;
52354;SDS011;38286;51.156;17.038;2023-04-15T07:11:27;2.30;;;0.90;;
52354;SDS011;38286;51.156;17.038;2023-04-15T07:13:53;1.77;;;1.00;;
52354;SDS011;38286;51.156;17.038;2023-04-15T07:16:19;1.02;;;0.90;;
52354;SDS011;38286;51.156;17.038;2023-04-15T07:18:46;1.17;;;1.08;;
52354;SDS011;38286;51.156;17.038;2023-04-15T07:21:12;1.00;;;0.90;;
52354;SDS011;38286;51.156;17.038;2023-04-15T07:23:38;1.13;;;1.08;;
52354;SDS011;38286;51.156;17.038;2023-04-15T07:26:04;1.73;;;1.20;;
52354;SDS011;38286;51.156;17.038;2023-04-15T07:28:30;1.02;;;1.00;;
52354;SDS011;38286;51.156;17.038;2023-04-15T07:30:56;1.55;;;1.35;;
52354;SDS011;38286;51.156;17.038;2023-04-15T07:33:22;1.67;;;1.25;;
52354;SDS011;38286;51.156;17.038;2023-04-15T07:35:48;2.13;;;1.20;;
52354;SDS011;38286;51.156;17.038;2023-04-15T07:38:14;1.85;;;1.30;;
52354;SDS011;38286;51.156;17.038;2023-04-15T07:40:41;2.63;;;1.67;;
52354;SDS011;38286;51.156;17.038;2023-04-15T07:43:07;2.83;;;1.30;;
52354;SDS011;38286;51.156;17.038;2023-04-15T07:45:33;2.80;;;1.25;;
52354;SDS011;38286;51.156;17.038;2023-04-15T07:48:00;2.05;;;1.00;;
52354;SDS011;38286;51.156;17.038;2023-04-15T07:50:27;1.13;;;1.00;;
52354;SDS011;38286;51.156;17.038;2023-04-15T07:52:53;1.52;;;1.15;;
52354;SDS011;38286;51.156;17.038;2023-04-15T07:55:19;2.47;;;1.02;;
52354;SDS011;38286;51.156;17.038;2023-04-15T07:57:47;1.40;;;1.10;;
52354;SDS011;38286;51.156;17.038;2023-04-15T08:00:14;1.58;;;0.95;;
52354;SDS011;38286;51.156;17.038;2023-04-15T08:02:41;1.00;;;0.90;;
52354;SDS011;38286;51.156;17.038;2023-04-15T08:05:08;2.28;;;0.98;;
52354;SDS011;38286;51.156;17.038;2023-04-15T08:07:35;2.35;;;1.23;;
52354;SDS011;38286;51.156;17.038;2023-04-15T08:10:03;2.72;;;1.15;;
52354;SDS011;38286;51.156;17.038;2023-04-15T08:12:29;1.05;;;0.90;;
52354;SDS011;38286;51.156;17.038;2023-04-15T08:14:55;2.00;;;1.10;;
52354;SDS011;38286;51.156;17.038;2023-04-15T08:17:22;1.65;;;1.15;;
52354;SDS011;38286;51.156;17.038;2023-04-15T08:19:48;1.38;;;0.80;;
52354;SDS011;38286;51.156;17.038;2023-04-15T08:22:14;3.53;;;1.02;;
52354;SDS011;38286;51.156;17.038;2023-04-15T08:24:40;1.58;;;1.05;;
52354;SDS011;38286;51.156;17.038;2023-04-15T08:27:06;0.95;;;0.95;;
52354;SDS011;38286;51.156;17.038;2023-04-15T08:29:33;1.15;;;0.80;;
52354;SDS011;38286;51.156;17.038;2023-04-15T08:32:00;0.70;;;0.50;;
52354;SDS011;38286;51.156;17.038;2023-04-15T08:34:26;1.55;;;0.95;;
52354;SDS011;38286;51.156;17.038;2023-04-15T08:36:52;1.65;;;0.70;;
52354;SDS011;38286;51.156;17.038;2023-04-15T08:39:18;0.88;;;0.80;;
52354;SDS011;38286;51.156;17.038;2023-04-15T08:41:51;1.15;;;0.80;;
52354;SDS011;38286;51.156;17.038;2023-04-15T08:44:32;0.98;;;0.82;;
52354;SDS011;38286;51.156;17.038;2023-04-15T08:47:01;1.52;;;0.73;;
52354;SDS011;38286;51.156;17.038;2023-04-15T08:49:28;0.80;;;0.60;;
52354;SDS011;38286;51.156;17.038;2023-04-15T08:51:55;0.85;;;0.70;;
52354;SDS011;38286;51.156;17.038;2023-04-15T08:54:23;0.57;;;0.57;;
52354;SDS011;38286;51.156;17.038;2023-04-15T08:56:49;0.80;;;0.68;;
52354;SDS011;38286;51.156;17.038;2023-04-15T08:59:16;0.52;;;0.50;;
52354;SDS011;38286;51.156;17.038;2023-04-15T09:01:42;0.60;;;0.60;;
52354;SDS011;38286;51.156;17.038;2023-04-15T09:04:08;0.70;;;0.60;;
52354;SDS011;38286;51.156;17.038;2023-04-15T09:06:36;0.55;;;0.55;;
52354;SDS011;38286;51.156;17.038;2023-04-15T09:09:04;1.55;;;0.77;;
52354;SDS011;38286;51.156;17.038;2023-04-15T09:11:30;1.13;;;1.00;;
52354;SDS011;38286;51.156;17.038;2023-04-15T09:13:56;0.70;;;0.60;;
52354;SDS011;38286;51.156;17.038;2023-04-15T09:16:22;0.85;;;0.70;;
52354;SDS011;38286;51.156;17.038;2023-04-15T09:18:49;1.02;;;0.63;;
52354;SDS011;38286;51.156;17.038;2023-04-15T09:21:15;0.70;;;0.70;;
52354;SDS011;38286;51.156;17.038;2023-04-15T09:23:59;1.17;;;0.63;;
52354;SDS011;38286;51.156;17.038;2023-04-15T09:26:29;1.38;;;0.68;;
52354;SDS011;38286;51.156;17.038;2023-04-15T09:29:03;0.63;;;0.63;;
52354;SDS011;38286;51.156;17.038;2023-04-15T09:31:31;2.03;;;1.10;;
52354;SDS011;38286;51.156;17.038;2023-04-15T09:33:57;1.70;;;0.68;;
52354;SDS011;38286;51.156;17.038;2023-04-15T09:36:23;0.95;;;0.60;;
52354;SDS011;38286;51.156;17.038;2023-04-15T09:38:56;1.13;;;0.70;;
52354;SDS011;38286;51.156;17.038;2023-04-15T09:41:24;1.10;;;0.80;;
52354;SDS011;38286;51.156;17.038;2023-04-15T09:43:50;0.63;;;0.63;;
52354;SDS011;38286;51.156;17.038;2023-04-15T09:46:16;0.77;;;0.60;;
52354;SDS011;38286;51.156;17.038;2023-04-15T09:48:43;2.28;;;0.70;;
52354;SDS011;38286;51.156;17.038;2023-04-15T09:51:09;1.10;;;0.60;;
52354;SDS011;38286;51.156;17.038;2023-04-15T09:53:35;0.40;;;0.40;;
52354;SDS011;38286;51.156;17.038;2023-04-15T09:56:02;1.85;;;0.70;;
52354;SDS011;38286;51.156;17.038;2023-04-15T09:58:29;0.50;;;0.50;;
52354;SDS011;38286;51.156;17.038;2023-04-15T10:00:58;0.50;;;0.50;;
52354;SDS011;38286;51.156;17.038;2023-04-15T10:03:25;2.78;;;0.90;;
52354;SDS011;38286;51.156;17.038;2023-04-15T10:05:53;0.68;;;0.60;;
52354;SDS011;38286;51.156;17.038;2023-04-15T10:08:22;1.23;;;0.77;;
52354;SDS011;38286;51.156;17.038;2023-04-15T10:10:49;0.82;;;0.60;;
52354;SDS011;38286;51.156;17.038;2023-04-15T10:13:22;1.10;;;0.60;;
52354;SDS011;38286;51.156;17.038;2023-04-15T10:16:05;0.80;;;0.60;;
52354;SDS011;38286;51.156;17.038;2023-04-15T10:18:37;0.50;;;0.50;;
52354;SDS011;38286;51.156;17.038;2023-04-15T10:21:05;1.75;;;0.50;;
52354;SDS011;38286;51.156;17.038;2023-04-15T10:23:31;0.47;;;0.40;;
52354;SDS011;38286;51.156;17.038;2023-04-15T10:25:58;0.82;;;0.40;;
52354;SDS011;38286;51.156;17.038;2023-04-15T10:28:24;0.60;;;0.40;;
52354;SDS011;38286;51.156;17.038;2023-04-15T10:30:51;1.60;;;0.60;;
52354;SDS011;38286;51.156;17.038;2023-04-15T10:33:23;0.43;;;0.40;;
52354;SDS011;38286;51.156;17.038;2023-04-15T10:35:50;0.50;;;0.50;;
52354;SDS011;38286;51.156;17.038;2023-04-15T10:38:33;0.50;;;0.50;;
52354;SDS011;38286;51.156;17.038;2023-04-15T10:43:53;0.60;;;0.57;;
52354;SDS011;38286;51.156;17.038;2023-04-15T10:46:28;2.58;;;0.45;;
52354;SDS011;38286;51.156;17.038;2023-04-15T10:49:12;0.47;;;0.30;;
52354;SDS011;38286;51.156;17.038;2023-04-15T10:51:40;0.40;;;0.40;;
52354;SDS011;38286;51.156;17.038;2023-04-15T10:54:08;0.50;;;0.40;;
52354;SDS011;38286;51.156;17.038;2023-04-15T10:56:40;0.40;;;0.30;;
52354;SDS011;38286;51.156;17.038;2023-04-15T11:01:51;0.28;;;0.28;;
52354;SDS011;38286;51.156;17.038;2023-04-15T11:07:38;0.40;;;0.30;;
52354;SDS011;38286;51.156;17.038;2023-04-15T11:12:51;0.45;;;0.45;;
52354;SDS011;38286;51.156;17.038;2023-04-15T11:15:26;0.30;;;0.30;;
52354;SDS011;38286;51.156;17.038;2023-04-15T11:18:10;0.50;;;0.50;;
52354;SDS011;38286;51.156;17.038;2023-04-15T11:20:40;0.40;;;0.40;;
52354;SDS011;38286;51.156;17.038;2023-04-15T11:23:09;0.40;;;0.40;;
52354;SDS011;38286;51.156;17.038;2023-04-15T11:25:35;0.50;;;0.50;;
52354;SDS011;38286;51.156;17.038;2023-04-15T11:28:02;0.63;;;0.40;;
52354;SDS011;38286;51.156;17.038;2023-04-15T11:30:30;0.40;;;0.40;;
52354;SDS011;38286;51.156;17.038;2023-04-15T11:33:00;1.17;;;0.40;;
52354;SDS011;38286;51.156;17.038;2023-04-15T11:35:28;0.45;;;0.40;;
52354;SDS011;38286;51.156;17.038;2023-04-15T11:37:54;0.70;;;0.63;;
52354;SDS011;38286;51.156;17.038;2023-04-15T11:40:21;0.35;;;0.35;;
52354;SDS011;38286;51.156;17.038;2023-04-15T11:45:49;0.95;;;0.70;;
52354;SDS011;38286;51.156;17.038;2023-04-15T11:48:17;4.22;;;0.85;;
52354;SDS011;38286;51.156;17.038;2023-04-15T11:50:44;1.30;;;0.63;;
52354;SDS011;38286;51.156;17.038;2023-04-15T11:53:10;1.05;;;0.70;;
52354;SDS011;38286;51.156;17.038;2023-04-15T11:55:48;0.60;;;0.60;;
52354;SDS011;38286;51.156;17.038;2023-04-15T11:58:22;0.73;;;0.57;;
52354;SDS011;38286;51.156;17.038;2023-04-15T12:00:53;1.02;;;0.80;;
52354;SDS011;38286;51.156;17.038;2023-04-15T12:03:26;0.55;;;0.55;;
52354;SDS011;38286;51.156;17.038;2023-04-15T12:06:03;0.60;;;0.60;;
52354;SDS011;38286;51.156;17.038;2023-04-15T12:11:35;0.60;;;0.60;;
52354;SDS011;38286;51.156;17.038;2023-04-15T12:16:41;0.90;;;0.80;;
52354;SDS011;38286;51.156;17.038;2023-04-15T12:19:12;0.60;;;0.60;;
52354;SDS011;38286;51.156;17.038;2023-04-15T12:21:40;0.50;;;0.50;;
52354;SDS011;38286;51.156;17.038;2023-04-15T12:24:08;0.70;;;0.60;;
52354;SDS011;38286;51.156;17.038;2023-04-15T12:26:36;0.60;;;0.60;;
52354;SDS011;38286;51.156;17.038;2023-04-15T12:29:07;0.68;;;0.60;;
52354;SDS011;38286;51.156;17.038;2023-04-15T12:31:34;0.50;;;0.50;;
52354;SDS011;38286;51.156;17.038;2023-04-15T12:34:06;1.38;;;0.50;;
52354;SDS011;38286;51.156;17.038;2023-04-15T12:36:32;0.70;;;0.70;;
52354;SDS011;38286;51.156;17.038;2023-04-15T12:39:02;0.60;;;0.60;;
52354;SDS011;38286;51.156;17.038;2023-04-15T12:41:29;0.57;;;0.47;;
52354;SDS011;38286;51.156;17.038;2023-04-15T12:43:55;0.98;;;0.70;;
52354;SDS011;38286;51.156;17.038;2023-04-15T12:46:22;0.43;;;0.43;;
52354;SDS011;38286;51.156;17.038;2023-04-15T12:48:48;0.57;;;0.52;;
52354;SDS011;38286;51.156;17.038;2023-04-15T12:51:16;0.60;;;0.60;;
52354;SDS011;38286;51.156;17.038;2023-04-15T12:53:42;1.05;;;0.73;;
52354;SDS011;38286;51.156;17.038;2023-04-15T12:56:08;0.52;;;0.52;;
52354;SDS011;38286;51.156;17.038;2023-04-15T12:58:34;1.55;;;0.80;;
52354;SDS011;38286;51.156;17.038;2023-04-15T13:01:00;0.55;;;0.55;;
52354;SDS011;38286;51.156;17.038;2023-04-15T13:03:27;0.60;;;0.60;;
52354;SDS011;38286;51.156;17.038;2023-04-15T13:05:53;1.25;;;0.70;;
52354;SDS011;38286;51.156;17.038;2023-04-15T13:08:19;0.50;;;0.50;;
52354;SDS011;38286;51.156;17.038;2023-04-15T13:10:45;0.80;;;0.80;;
52354;SDS011;38286;51.156;17.038;2023-04-15T13:13:11;2.10;;;0.90;;
52354;SDS011;38286;51.156;17.038;2023-04-15T13:15:37;0.60;;;0.60;;
52354;SDS011;38286;51.156;17.038;2023-04-15T13:18:04;0.63;;;0.63;;
52354;SDS011;38286;51.156;17.038;2023-04-15T13:20:31;0.93;;;0.80;;
52354;SDS011;38286;51.156;17.038;2023-04-15T13:22:57;0.90;;;0.80;;
52354;SDS011;38286;51.156;17.038;2023-04-15T13:25:23;1.10;;;1.00;;
52354;SDS011;38286;51.156;17.038;2023-04-15T13:27:50;1.00;;;0.90;;
52354;SDS011;38286;51.156;17.038;2023-04-15T13:30:16;0.73;;;0.70;;
52354;SDS011;38286;51.156;17.038;2023-04-15T13:32:42;0.77;;;0.77;;
52354;SDS011;38286;51.156;17.038;2023-04-15T13:35:08;0.82;;;0.82;;
52354;SDS011;38286;51.156;17.038;2023-04-15T13:37:34;0.73;;;0.70;;
52354;SDS011;38286;51.156;17.038;2023-04-15T13:40:00;0.80;;;0.70;;
52354;SDS011;38286;51.156;17.038;2023-04-15T13:42:26;1.08;;;0.73;;
52354;SDS011;38286;51.156;17.038;2023-04-15T13:44:52;1.42;;;0.85;;
52354;SDS011;38286;51.156;17.038;2023-04-15T13:47:18;0.68;;;0.60;;
52354;SDS011;38286;51.156;17.038;2023-04-15T13:49:45;0.90;;;0.52;;
52354;SDS011;38286;51.156;17.038;2023-04-15T13:52:11;0.57;;;0.57;;
52354;SDS011;38286;51.156;17.038;2023-04-15T13:54:37;0.70;;;0.70;;
52354;SDS011;38286;51.156;17.038;2023-04-15T13:57:03;0.77;;;0.68;;
52354;SDS011;38286;51.156;17.038;2023-04-15T13:59:31;0.65;;;0.65;;
52354;SDS011;38286;51.156;17.038;2023-04-15T14:01:58;0.82;;;0.73;;
52354;SDS011;38286;51.156;17.038;2023-04-15T14:04:24;2.55;;;1.10;;
52354;SDS011;38286;51.156;17.038;2023-04-15T14:06:51;0.70;;;0.60;;
52354;SDS011;38286;51.156;17.038;2023-04-15T14:09:17;0.90;;;0.70;;
52354;SDS011;38286;51.156;17.038;2023-04-15T14:11:43;0.50;;;0.40;;
52354;SDS011;38286;51.156;17.038;2023-04-15T14:14:09;0.65;;;0.65;;
52354;SDS011;38286;51.156;17.038;2023-04-15T14:16:35;0.70;;;0.70;;
52354;SDS011;38286;51.156;17.038;2023-04-15T14:19:01;1.83;;;0.52;;
52354;SDS011;38286;51.156;17.038;2023-04-15T14:21:27;0.82;;;0.65;;
52354;SDS011;38286;51.156;17.038;2023-04-15T14:23:57;0.73;;;0.73;;
52354;SDS011;38286;51.156;17.038;2023-04-15T14:26:23;1.15;;;0.57;;
52354;SDS011;38286;51.156;17.038;2023-04-15T14:28:49;0.63;;;0.63;;
52354;SDS011;38286;51.156;17.038;2023-04-15T14:31:15;3.10;;;0.85;;
52354;SDS011;38286;51.156;17.038;2023-04-15T14:33:41;0.82;;;0.70;;
52354;SDS011;38286;51.156;17.038;2023-04-15T14:36:07;1.70;;;0.63;;
52354;SDS011;38286;51.156;17.038;2023-04-15T14:38:34;0.88;;;0.80;;
52354;SDS011;38286;51.156;17.038;2023-04-15T14:41:07;0.80;;;0.80;;
52354;SDS011;38286;51.156;17.038;2023-04-15T14:43:34;0.90;;;0.73;;